ADDS TAF Board INFO
 
 

IDs: Format: Expanded Condensed

KIAD - Washington/Dulles In, VA, US

Issued at 1502 UTC 31 Jul 2014
Time1652Z31/18Z31/19Z31/20Z31/21Z31/22Z31/23Z01/00Z01/01Z01/02Z01/03Z01/04Z01/05Z01/06Z
TypeOBSPRVLPRVLPRVLPRVLPRVLPRVLPRVLPRVLPRVLPRVLPRVLPRVLPRVL
Vis10>6>6>6>6>6>6>6>6>6>6>6>6>6
Cig--------------70707070707070
CoverSCTSCTSCTSCTSCTSCTSCTBKNBKNBKNBKNBKNBKNBKN
FltCat--VFRVFRVFRVFRVFRVFRVFRVFRVFRVFRVFRVFRVFR
Wx----------------------------
WDir210230230230230230230VRBVRBVRBVRBVRBVRBVRB
WSpd87777773333333
WGst----------------------------
R01/19
XWnd4555555VRBVRBVRBVRBVRBVRBVRB
HWnd-7-5-5-5-5-5-5VRBVRBVRBVRBVRBVRBVRB
R12/30
XWnd-8-6-6-6-6-6-6VRBVRBVRBVRBVRBVRBVRB
HWnd-1-3-3-3-3-3-3VRBVRBVRBVRBVRBVRBVRB
Raw TAF
KIAD 311502Z 3115/0118 VRB03KT P6SM FEW060
  FM311600 23007KT P6SM SCT060
  FM010000 VRB03KT P6SM BKN070
  FM011600 15005KT P6SM BKN070


Raw METAR
KIAD 311652Z 21008KT 10SM FEW040 SCT200 27/13 A3010 RMK AO2 SLP190 T02720128

TAF Board Legend

Hazard Green Yellow Red Magenta
Visibility (sm) >5 >2.99 >0.99 <=0.99
Ceiling (100 ft) >30 >9.99 >4.99 <=4.99
Wind Speed (kt) <10 <20 <30 >=30
Wind Gust (kt) <10 <20 <30 >=30
Weather No Wx Reported Light precipitation Moderate precipitation Heavy precipitation
Flight Category VFR MVFR IFR LIFR

Page loaded:  17:34 UTC  |   10:34 AM Pacific  |   11:34 AM Mountain  |   12:34 PM Central  |   01:34 PM Eastern

 

ADVISORIES

FORECASTS

FORECASTS

OBSERVATIONS

USER TOOLS

ABOUT US